Broward Mall, Florida
Current Conditions -  °F | °C
As of 2:53 AM on Saturday 29 Nov 2014 (Local Time) from KFLL Reporting Station
Broken Clouds Broken Clouds  
Wind Chill: 58°   Ceiling: 3800
Heat Index: 58°   Visibility: 10mi
Dew Point: 51°   Wind: 10mph
Humidity: 78%   Direction: 330°NNW
Pressure: 30.17"   Gusts: NA
Location:  26.1172°N, 80.2562°W
Report Text: KFLL 290753Z 33009KT 10SM BKN038 BKN046 BKN060 14/11 A3017 RMK AO2 SLP215 T01440106
Loading
Personal Weather Stations






























Interactive Weather Map New forecast layout! Learn more

10-Day Weather Forecast

Advertisements
Track Severe Weather on mobile